Messwerte Zamboanga

Temperatur

Temperatur
°C
1638518400 16.00 16.00 27
1638522000 17.00 17.00 26
1638525600 18.00 18.00
1638529200 19.00 19.00
1638532800 20.00 20.00 26
1638536400 21.00 21.00
1638540000 22.00 22.00
1638543600 23.00 23.00 26
1638547200 0.00 0.00
1638550800 1.00 1.00
1638554400 2.00 2.00 24
1638558000 3.00 3.00
1638561600 4.00 4.00
1638565200 5.00 5.00 24
1638568800 6.00 6.00 24
1638572400 7.00 7.00 26
1638576000 8.00 8.00 29
1638579600 9.00 9.00 30
1638583200 10.00 10.00 29
1638586800 11.00 11.00 31
1638590400 12.00 12.00 31
1638594000 13.00 13.00 31
1638597600 14.00 14.00 29
1638601200 15.00 15.00 29

Aktuellste Messwerte

Wettercharakter
Wetter: wechselnd bewölkt
Temperatur
29 °C
Feuchtigkeit
80 %
Wind
20 km/hWindrichtung: West
Luftdruck
1008 hPa
Messzeit: 4. Dezember 2021, 14.00Datenquelle: METAR

Weitere Messstationen in der Nähe

Messstation Temperatur Entfernung
Davao 32 °C 396 km
Cebu 30 °C 432 km
Sandakan 29 °C 455 km

Wind

Windrichtung Böen Mittelwind
° km/h km/h
1638518400 16.00 15.00 - 16.00 100° 5
1638522000 17.00 16.00 - 17.00 80° 10
1638525600 18.00 17.00 - 18.00 5
1638529200 19.00 18.00 - 19.00
1638532800 20.00 19.00 - 20.00 70° 15
1638536400 21.00 20.00 - 21.00
1638540000 22.00 21.00 - 22.00
1638543600 23.00 22.00 - 23.00 60° 5
1638547200 0.00 23.00 - 0.00
1638550800 1.00 0.00 - 1.00
1638554400 2.00 1.00 - 2.00 90° 5
1638558000 3.00 2.00 - 3.00
1638561600 4.00 3.00 - 4.00
1638565200 5.00 4.00 - 5.00 60° 5
1638568800 6.00 5.00 - 6.00 0
1638572400 7.00 6.00 - 7.00 0
1638576000 8.00 7.00 - 8.00 5
1638579600 9.00 8.00 - 9.00 5
1638583200 10.00 9.00 - 10.00 200° 10
1638586800 11.00 10.00 - 11.00 5
1638590400 12.00 11.00 - 12.00 5
1638594000 13.00 12.00 - 13.00 100° 10
1638597600 14.00 13.00 - 14.00 290° 20
1638601200 15.00 14.00 - 15.00 290° 10

Ihre Wetterstation

Fehlt Ihre Wetterstation auf unserem Portal?

Schreiben Sie an network@meteonews.ch

Klima

Wann ist es am wärmsten? Wann regnet es am wenigsten? Unsere Klimadaten geben Auskunft.